Time;durP1;ratioP1;P1;durP2;ratioP2;P2;SDS_P1;SDS_P2;PMS_P1;PMS_P2;Temp;Humidity;BMP_temperature;BMP_pressure;BME280_temperature;BME280_humidity;BME280_pressure;Samples;Min_cycle;Max_cycle;Signal;HPM_P1;HPM_P2
2022/04/05 00:01:17;;;;;;;11.90;6.08;;;;;;;3.65;66.89;96834.98;1773745;80;21041;-56
2022/04/05 00:03:44;;;;;;;13.10;8.75;;;;;;;3.58;66.89;96838.97;1757068;80;21053;-56
2022/04/05 00:06:11;;;;;;;14.18;7.53;;;;;;;3.51;67.47;96830.41;1771560;80;21001;-56
2022/04/05 00:08:38;;;;;;;13.15;9.73;;;;;;;3.47;67.60;96831.45;1773144;80;21457;-56
2022/04/05 00:11:05;;;;;;;10.60;5.35;;;;;;;3.46;68.62;96833.86;1773732;80;21028;-56
2022/04/05 00:13:31;;;;;;;11.90;7.83;;;;;;;3.44;69.65;96819.93;1763199;80;20997;-56
2022/04/05 00:15:58;;;;;;;11.93;7.47;;;;;;;3.39;69.39;96823.92;1773895;80;21614;-56
2022/04/05 00:18:25;;;;;;;13.93;9.90;;;;;;;3.33;70.01;96820.44;1760468;80;21006;-55
2022/04/05 00:20:52;;;;;;;12.58;8.80;;;;;;;3.27;71.09;96812.10;1743211;81;21049;-56
2022/04/05 00:23:19;;;;;;;16.00;8.88;;;;;;;3.23;71.37;96804.31;1742908;81;21442;-55
2022/04/05 00:25:46;;;;;;;15.55;10.15;;;;;;;3.21;71.79;96790.92;1743404;82;21033;-56
2022/04/05 00:28:13;;;;;;;13.50;9.25;;;;;;;3.19;71.42;96791.19;1742986;82;21370;-56
2022/04/05 00:30:40;;;;;;;14.60;8.65;;;;;;;3.20;71.00;96800.83;1743232;82;21357;-56
2022/04/05 00:33:07;;;;;;;10.85;7.47;;;;;;;3.19;70.98;96776.47;1742959;81;20986;-56
2022/04/05 00:35:34;;;;;;;11.75;7.95;;;;;;;3.22;71.47;96779.14;1743253;82;20985;-56
2022/04/05 00:38:01;;;;;;;11.70;8.15;;;;;;;3.24;70.80;96781.81;1743285;82;20989;-56
2022/04/05 00:40:30;;;;;;;13.10;8.45;;;;;;;3.23;71.06;96772.18;1743376;82;21471;-56
2022/04/05 00:42:58;;;;;;;13.03;8.68;;;;;;;3.25;71.08;96763.38;1743283;81;20989;-56
2022/04/05 00:45:25;;;;;;;13.22;9.08;;;;;;;3.22;71.54;96754.51;1743467;82;24284;-56
2022/04/05 00:47:54;;;;;;;11.95;8.53;;;;;;;3.23;71.83;96757.98;1742913;81;21439;-56
2022/04/05 00:50:22;;;;;;;11.57;8.60;;;;;;;3.20;72.12;96764.69;1743380;82;21406;-56
2022/04/05 00:52:49;;;;;;;13.47;7.87;;;;;;;3.16;72.40;96754.22;1743370;81;21372;-56
2022/04/05 00:55:21;;;;;;;12.95;9.43;;;;;;;3.15;72.93;96750.47;1743245;82;21025;-56
2022/04/05 00:57:51;;;;;;;17.17;8.35;;;;;;;3.15;73.33;96751.27;1743193;81;21022;-56
2022/04/05 01:00:18;;;;;;;12.60;8.33;;;;;;;3.10;73.39;96756.09;1743289;82;20947;-56
2022/04/05 01:02:47;;;;;;;12.07;8.28;;;;;;;3.06;74.01;96754.98;1747169;80;21093;-56
2022/04/05 01:05:17;;;;;;;12.70;9.80;;;;;;;3.02;74.46;96752.58;1774080;80;27132;-56
2022/04/05 01:07:45;;;;;;;10.63;7.10;;;;;;;3.03;74.37;96742.14;1770059;80;21877;-56
2022/04/05 01:10:12;;;;;;;10.23;7.57;;;;;;;3.02;74.71;96746.42;1768225;80;21608;-56
2022/04/05 01:12:39;;;;;;;10.13;7.12;;;;;;;3.00;74.64;96731.97;1770973;80;21064;-56
2022/04/05 01:15:08;;;;;;;11.15;8.68;;;;;;;3.01;74.47;96723.41;1743301;82;21009;-55
2022/04/05 01:17:35;;;;;;;10.95;7.97;;;;;;;3.02;74.96;96711.09;1743208;81;21411;-56
2022/04/05 01:20:03;;;;;;;13.80;8.50;;;;;;;2.99;75.51;96718.32;1743249;82;21057;-56
2022/04/05 01:22:29;;;;;;;12.28;8.08;;;;;;;2.99;75.04;96724.18;1743021;81;22058;-56
2022/04/05 01:24:56;;;;;;;10.72;7.00;;;;;;;2.97;74.78;96727.12;1743246;82;20978;-56
2022/04/05 01:27:27;;;;;;;10.55;7.67;;;;;;;2.95;75.73;96736.48;1743163;82;21049;-56
2022/04/05 01:29:52;;;;;;;8.75;3.95;;;;;;;2.93;75.27;96740.77;1743086;80;21065;-56
2022/04/05 01:32:19;;;;;;;8.83;5.97;;;;;;;2.94;75.68;96732.20;1743093;82;20994;-56
2022/04/05 01:34:46;;;;;;;9.50;6.42;;;;;;;2.92;76.57;96735.15;1742980;81;21034;-56
2022/04/05 01:37:13;;;;;;;12.23;7.75;;;;;;;2.81;77.04;96728.93;1762550;80;21452;-56
2022/04/05 01:39:40;;;;;;;9.08;6.53;;;;;;;2.80;77.40;96726.52;1746509;80;21018;-56
2022/04/05 01:42:10;;;;;;;10.48;6.45;;;;;;;2.76;77.58;96732.13;1743281;82;21363;-57
2022/04/05 01:44:37;;;;;;;10.00;6.90;;;;;;;2.73;78.42;96723.27;1760093;80;21002;-56
2022/04/05 01:47:11;;;;;;;10.95;6.58;;;;;;;2.68;79.12;96720.06;1773907;80;20993;-56
2022/04/05 01:49:39;;;;;;;9.78;6.87;;;;;;;2.68;78.09;96725.94;1745064;80;21427;-56
2022/04/05 01:52:07;;;;;;;9.13;6.08;;;;;;;2.66;78.31;96718.19;1743151;82;21501;-56
2022/04/05 01:54:34;;;;;;;10.15;6.92;;;;;;;2.66;78.94;96721.39;1707314;83;21713;-56
2022/04/05 01:57:01;;;;;;;10.13;7.05;;;;;;;2.64;79.57;96716.28;1743343;82;20991;-56
2022/04/05 01:59:29;;;;;;;8.83;5.17;;;;;;;2.63;79.44;96728.05;1743057;80;21013;-56
2022/04/05 02:01:56;;;;;;;10.60;5.72;;;;;;;2.62;79.57;96721.63;1743435;82;21065;-55
2022/04/05 02:04:23;;;;;;;10.40;7.50;;;;;;;2.61;80.31;96713.33;1743042;81;21565;-56
2022/04/05 02:06:50;;;;;;;10.80;7.47;;;;;;;2.58;79.42;96721.35;1743288;82;21162;-56
2022/04/05 02:09:17;;;;;;;7.58;6.25;;;;;;;2.57;80.31;96726.97;1742738;81;20967;-56
2022/04/05 02:11:46;;;;;;;9.23;5.17;;;;;;;2.55;81.20;96727.20;1743343;82;21430;-56
2022/04/05 02:14:14;;;;;;;9.90;6.90;;;;;;;2.55;80.80;96709.81;1753567;80;20963;-56
2022/04/05 02:16:41;;;;;;;10.30;6.67;;;;;;;2.53;81.36;96716.77;1743188;82;21412;-56
2022/04/05 02:19:09;;;;;;;7.20;4.83;;;;;;;2.51;81.31;96715.42;1764321;80;21423;-56
2022/04/05 02:21:36;;;;;;;11.83;7.60;;;;;;;2.52;80.97;96707.14;1773842;80;20992;-57
2022/04/05 02:24:04;;;;;;;10.60;5.53;;;;;;;2.49;81.98;96715.69;1763393;80;21463;-56
2022/04/05 02:26:31;;;;;;;10.93;7.33;;;;;;;2.48;82.79;96704.73;1743316;82;20994;-56
2022/04/05 02:28:57;;;;;;;9.43;7.20;;;;;;;2.43;83.58;96700.67;1752163;80;22087;-56
2022/04/05 02:31:24;;;;;;;10.13;6.55;;;;;;;2.40;83.13;96705.75;1773819;80;21391;-56
2022/04/05 02:33:51;;;;;;;9.05;5.60;;;;;;;2.38;83.66;96693.95;1755809;80;21009;-57
2022/04/05 02:36:18;;;;;;;10.28;7.40;;;;;;;2.44;84.58;96685.44;1744977;80;21128;-56
2022/04/05 02:38:45;;;;;;;12.35;8.85;;;;;;;2.37;84.60;96688.34;1764042;80;21053;-56
2022/04/05 02:41:12;;;;;;;9.10;6.22;;;;;;;2.35;84.29;96689.13;1743134;82;21577;-56
2022/04/05 02:43:39;;;;;;;6.28;4.55;;;;;;;2.33;84.86;96691.27;1742715;81;21053;-56
2022/04/05 02:46:08;;;;;;;8.85;5.15;;;;;;;2.32;85.34;96688.33;1743136;82;21462;-56
2022/04/05 02:48:35;;;;;;;8.35;5.78;;;;;;;2.32;85.10;96684.85;1765269;80;21013;-56
2022/04/05 02:51:03;;;;;;;8.38;5.53;;;;;;;2.29;85.43;96684.81;1742890;82;21438;-56
2022/04/05 02:53:30;;;;;;;7.50;5.25;;;;;;;2.26;85.00;96684.81;1743054;81;21002;-56
2022/04/05 02:55:57;;;;;;;7.72;5.33;;;;;;;2.25;86.06;96698.44;1764583;80;21005;-56
2022/04/05 02:58:23;;;;;;;11.70;5.05;;;;;;;2.22;86.23;96689.58;1762583;80;21010;-56
2022/04/05 03:00:50;;;;;;;8.43;6.22;;;;;;;2.22;86.10;96674.38;1755577;80;21013;-56
2022/04/05 03:03:17;;;;;;;7.60;6.67;;;;;;;2.21;86.99;96678.09;1759546;81;21564;-56
2022/04/05 03:05:44;;;;;;;7.35;4.78;;;;;;;2.19;87.74;96680.75;1748359;80;21057;-56
2022/04/05 03:08:11;;;;;;;10.95;7.60;;;;;;;2.19;87.12;96680.75;1773669;80;21316;-56
2022/04/05 03:10:38;;;;;;;11.90;8.90;;;;;;;2.18;87.77;96685.30;1743689;80;20984;-56
2022/04/05 03:13:05;;;;;;;11.28;6.45;;;;;;;2.17;88.06;96668.98;1742946;81;21478;-56
2022/04/05 03:15:32;;;;;;;8.20;6.00;;;;;;;2.17;88.02;96686.89;1743321;82;22167;-56
2022/04/05 03:17:59;;;;;;;6.80;4.55;;;;;;;2.17;88.06;96681.02;1742868;80;20993;-56
2022/04/05 03:20:26;;;;;;;8.18;4.80;;;;;;;2.17;88.84;96685.56;1743463;82;21045;-56
2022/04/05 03:22:55;;;;;;;6.35;3.90;;;;;;;2.22;88.91;96681.56;1743257;81;21146;-55
2022/04/05 03:25:22;;;;;;;5.92;4.40;;;;;;;2.21;89.29;96672.73;1743361;82;21030;-57
2022/04/05 03:27:49;;;;;;;5.58;3.83;;;;;;;2.16;89.67;96672.73;1743193;81;21077;-56
2022/04/05 03:30:18;;;;;;;7.87;5.30;;;;;;;2.14;89.78;96672.72;1743029;82;20993;-56
2022/04/05 03:32:45;;;;;;;5.87;4.35;;;;;;;2.14;89.52;96673.52;1743087;82;21097;-56
2022/04/05 03:35:12;;;;;;;7.45;5.58;;;;;;;2.13;89.99;96663.88;1742938;82;20990;-56
2022/04/05 03:37:38;;;;;;;10.68;7.45;;;;;;;2.13;89.94;96669.22;1766436;80;21036;-56
2022/04/05 03:40:07;;;;;;;6.45;5.17;;;;;;;2.13;89.99;96665.20;1742972;82;21069;-56
2022/04/05 03:42:34;;;;;;;5.87;3.72;;;;;;;2.15;89.89;96660.97;1743163;81;21498;-56
2022/04/05 03:45:01;;;;;;;8.85;5.95;;;;;;;2.15;89.81;96660.97;1742994;82;21325;-56
2022/04/05 03:47:28;;;;;;;9.58;6.55;;;;;;;2.14;90.26;96652.67;1743018;81;20998;-56
2022/04/05 03:49:56;;;;;;;6.00;4.40;;;;;;;2.15;89.84;96664.44;1742979;82;21038;-56
2022/04/05 03:52:22;;;;;;;6.17;4.53;;;;;;;2.17;90.20;96659.64;1707458;84;21062;-56
2022/04/05 03:54:49;;;;;;;6.78;4.90;;;;;;;2.21;90.14;96658.57;1742857;82;21478;-56
2022/04/05 03:57:16;;;;;;;6.95;5.30;;;;;;;2.25;90.06;96667.70;1743203;82;21049;-56
2022/04/05 03:59:43;;;;;;;15.00;10.15;;;;;;;2.26;90.13;96667.44;1772115;80;21033;-56
2022/04/05 04:02:10;;;;;;;15.00;9.55;;;;;;;2.30;89.82;96667.70;1773862;80;20993;-56
2022/04/05 04:04:38;;;;;;;13.22;8.58;;;;;;;2.31;89.65;96665.84;1745720;80;21041;-56
2022/04/05 04:07:05;;;;;;;18.02;8.10;;;;;;;2.35;89.67;96668.28;1743217;82;21020;-56
2022/04/05 04:09:32;;;;;;;11.12;7.08;;;;;;;2.36;89.26;96673.36;1742942;81;21032;-56
2022/04/05 04:11:59;;;;;;;8.68;5.58;;;;;;;2.36;89.29;96663.20;1743302;82;20978;-56
2022/04/05 04:14:26;;;;;;;8.55;5.92;;;;;;;2.37;89.25;96663.47;1742816;82;20986;-56
2022/04/05 04:16:53;;;;;;;5.42;4.85;;;;;;;2.42;89.09;96671.53;1743188;82;21057;-57
2022/04/05 04:19:20;;;;;;;4.03;3.05;;;;;;;2.43;89.27;96675.81;1742801;81;21074;-56
2022/04/05 04:21:47;;;;;;;4.70;3.25;;;;;;;2.42;89.47;96671.00;1743329;82;21049;-56
2022/04/05 04:24:14;;;;;;;7.62;4.30;;;;;;;2.46;88.99;96672.61;1742865;81;20990;-56
2022/04/05 04:26:41;;;;;;;4.30;3.05;;;;;;;2.45;89.37;96677.15;1743144;82;21471;-56
2022/04/05 04:29:08;;;;;;;4.40;3.80;;;;;;;2.46;89.12;96677.95;1738885;81;21061;-56
2022/04/05 04:31:35;;;;;;;6.62;4.80;;;;;;;2.45;88.87;96681.69;1732630;82;21064;-56
2022/04/05 04:34:01;;;;;;;5.80;3.55;;;;;;;2.46;89.33;96683.30;1739178;81;22081;-57
2022/04/05 04:36:28;;;;;;;7.62;4.10;;;;;;;2.50;89.25;96676.38;1748072;80;20978;-56
2022/04/05 04:38:55;;;;;;;5.45;4.03;;;;;;;2.53;89.65;96679.86;1769221;80;21053;-56
2022/04/05 04:41:22;;;;;;;6.50;5.08;;;;;;;2.50;89.59;96683.06;1766394;80;21017;-56
2022/04/05 04:43:53;;;;;;;11.75;5.60;;;;;;;2.49;89.75;96681.47;1757686;80;21031;-57
2022/04/05 04:46:20;;;;;;;5.35;3.90;;;;;;;2.49;89.89;96680.13;1760029;80;21056;-57
2022/04/05 04:48:47;;;;;;;4.95;3.20;;;;;;;2.48;89.57;96687.88;1765393;79;21642;-56
2022/04/05 04:51:14;;;;;;;3.67;2.25;;;;;;;2.50;89.39;96682.53;1754310;80;21104;-56
2022/04/05 04:53:41;;;;;;;5.60;4.97;;;;;;;2.51;89.57;96685.48;1745812;80;21108;-57
2022/04/05 04:56:08;;;;;;;8.93;6.85;;;;;;;2.51;89.77;96686.02;1746735;80;21068;-57
2022/04/05 04:58:35;;;;;;;7.97;5.80;;;;;;;2.52;89.25;96692.97;1756878;80;21409;-57
2022/04/05 05:01:02;;;;;;;4.80;3.70;;;;;;;2.51;89.77;96694.84;1740013;80;21091;-56
2022/04/05 05:03:29;;;;;;;4.03;3.10;;;;;;;2.52;89.13;96700.45;1761162;80;21127;-56
2022/04/05 05:05:56;;;;;;;4.30;3.60;;;;;;;2.54;89.65;96701.52;1765626;81;21521;-57
2022/04/05 05:08:23;;;;;;;4.40;2.80;;;;;;;2.57;89.25;96701.02;1757001;80;21081;-56
2022/04/05 05:10:50;;;;;;;5.08;3.55;;;;;;;2.59;89.53;96706.91;1746510;80;21072;-57
2022/04/05 05:13:17;;;;;;;7.15;4.15;;;;;;;2.63;89.07;96706.65;1764804;80;21105;-57
2022/04/05 05:15:44;;;;;;;5.47;3.33;;;;;;;2.65;89.15;96701.03;1741624;80;20962;-57
2022/04/05 05:18:11;;;;;;;4.42;3.65;;;;;;;2.65;89.35;96705.05;1750535;80;20986;-57
2022/04/05 05:20:38;;;;;;;4.65;2.22;;;;;;;2.63;89.18;96703.17;1745257;80;21183;-57
2022/04/05 05:23:05;;;;;;;5.92;3.15;;;;;;;2.64;89.30;96706.91;1771100;80;21000;-57
2022/04/05 05:25:32;;;;;;;5.58;3.33;;;;;;;2.61;89.41;96712.00;1770823;80;23106;-57
2022/04/05 05:28:00;;;;;;;5.37;4.45;;;;;;;2.59;89.29;96714.94;1759670;80;20989;-57
2022/04/05 05:30:27;;;;;;;7.17;5.37;;;;;;;2.58;89.47;96713.86;1766707;80;20974;-56
2022/04/05 05:32:54;;;;;;;26.65;13.78;;;;;;;2.58;89.40;96717.34;1756612;80;21076;-57
2022/04/05 05:35:21;;;;;;;7.45;3.37;;;;;;;2.59;88.98;96718.14;1763601;80;21507;-57
2022/04/05 05:37:49;;;;;;;7.53;4.97;;;;;;;2.63;89.30;96720.02;1764473;80;21033;-58
2022/04/05 05:40:16;;;;;;;9.45;5.85;;;;;;;2.60;89.11;96719.22;1746250;80;21032;-57
2022/04/05 05:43:03;;;;;;;6.80;3.27;;;;;;;2.63;89.25;96721.89;1743330;80;21187;-56
2022/04/05 05:45:32;;;;;;;5.87;4.15;;;;;;;2.65;89.49;96719.25;1770917;80;21084;-57
2022/04/05 05:47:59;;;;;;;4.03;2.22;;;;;;;2.65;89.56;96721.09;1762287;79;21647;-57
2022/04/05 05:50:26;;;;;;;10.60;6.25;;;;;;;2.62;89.82;96723.77;1763920;80;21423;-57
2022/04/05 05:52:53;;;;;;;17.35;9.70;;;;;;;2.63;90.10;96717.34;1763965;80;21013;-56
2022/04/05 05:55:21;;;;;;;24.52;10.25;;;;;;;2.63;89.97;96724.03;1762325;80;21650;-56
2022/04/05 05:57:48;;;;;;;16.10;8.80;;;;;;;2.64;89.80;96730.98;1743553;80;21407;-57
2022/04/05 06:00:20;;;;;;;21.00;9.23;;;;;;;2.68;89.42;96724.60;1761387;80;21438;-56
2022/04/05 06:02:45;;;;;;;18.82;7.80;;;;;;;2.72;90.07;96728.35;1755612;80;21050;-56
2022/04/05 06:05:12;;;;;;;30.57;15.13;;;;;;;2.70;90.25;96731.30;1743363;80;20986;-57
2022/04/05 06:07:41;;;;;;;14.30;8.60;;;;;;;2.71;90.09;96736.11;1759205;80;21018;-57
2022/04/05 06:10:09;;;;;;;6.53;4.30;;;;;;;2.73;90.20;96737.45;1745136;80;21037;-56
2022/04/05 06:12:41;;;;;;;23.90;10.60;;;;;;;2.74;90.27;96741.77;1761244;80;22614;-57
2022/04/05 06:15:09;;;;;;;4.00;2.55;;;;;;;2.78;90.28;96746.84;1757670;80;21049;-56
2022/04/05 06:17:41;;;;;;;11.28;4.08;;;;;;;2.75;90.13;96746.05;1752177;80;21508;-55
2022/04/05 06:20:10;;;;;;;8.53;3.92;;;;;;;2.75;90.41;96744.70;1756330;80;21008;-57
2022/04/05 06:22:49;;;;;;;;;;;;;;;2.79;90.19;96739.63;1744827;80;21029;-56
2022/04/05 06:25:26;;;;;;;10.88;6.20;;;;;;;2.76;90.45;96750.33;1754475;80;20557;-56
2022/04/05 06:27:55;;;;;;;4.08;3.00;;;;;;;2.78;90.58;96746.05;1746184;80;21080;-57
2022/04/05 06:30:22;;;;;;;5.90;4.33;;;;;;;2.80;90.49;96750.59;1753454;80;21052;-55
2022/04/05 06:32:49;;;;;;;25.52;8.65;;;;;;;2.84;90.02;96751.70;1767449;80;21033;-57
2022/04/05 06:35:15;;;;;;;6.90;6.20;;;;;;;2.90;90.32;96747.16;1754826;80;21775;-55
2022/04/05 06:37:44;;;;;;;5.12;3.67;;;;;;;2.91;90.22;96748.80;1754078;80;21132;-56
2022/04/05 06:40:14;;;;;;;7.95;5.58;;;;;;;2.92;90.52;96741.03;1730618;80;26420;-57
2022/04/05 06:42:43;;;;;;;8.28;5.12;;;;;;;2.97;89.90;96750.41;1753155;80;21112;-55
2022/04/05 06:45:13;;;;;;;8.55;6.35;;;;;;;3.03;89.87;96751.50;1759319;80;20969;-56
2022/04/05 06:47:40;;;;;;;6.62;4.30;;;;;;;3.07;89.94;96751.77;1760838;80;21561;-56
2022/04/05 06:50:08;;;;;;;4.00;2.95;;;;;;;3.10;89.99;96756.63;1760099;80;21068;-56
2022/04/05 06:52:39;;;;;;;7.22;5.67;;;;;;;3.06;90.10;96759.00;1752782;80;20978;-56
2022/04/05 06:55:07;;;;;;;6.70;3.90;;;;;;;3.07;90.06;96763.28;1749290;80;21013;-55
2022/04/05 06:57:35;;;;;;;9.95;7.03;;;;;;;3.07;90.47;96754.45;1744780;80;20989;-55
2022/04/05 07:00:05;;;;;;;9.40;5.90;;;;;;;3.09;90.33;96763.85;1748133;80;21165;-55
2022/04/05 07:02:32;;;;;;;6.47;4.28;;;;;;;3.16;89.78;96762.78;1748443;80;21077;-56
2022/04/05 07:04:59;;;;;;;9.70;6.78;;;;;;;3.18;89.78;96766.83;1749766;80;21092;-57
2022/04/05 07:07:25;;;;;;;3.67;2.42;;;;;;;3.20;90.18;96766.56;1753141;80;21138;-56
2022/04/05 07:09:52;;;;;;;25.43;11.05;;;;;;;3.20;90.14;96757.99;1762322;80;21462;-56
2022/04/05 07:12:19;;;;;;;7.10;4.25;;;;;;;3.24;90.01;96759.59;1742253;80;21040;-56
2022/04/05 07:14:46;;;;;;;11.22;5.90;;;;;;;3.29;89.96;96760.97;1745253;80;21521;-56
2022/04/05 07:17:13;;;;;;;9.20;5.55;;;;;;;3.31;89.79;96764.17;1744212;82;21068;-56
2022/04/05 07:19:40;;;;;;;6.22;3.42;;;;;;;3.28;90.63;96762.03;1747810;80;21116;-56
2022/04/05 07:22:07;;;;;;;2.85;1.75;;;;;;;3.33;90.31;96772.73;1750106;80;21040;-56
2022/04/05 07:24:34;;;;;;;7.83;3.65;;;;;;;3.39;90.08;96759.64;1760041;80;21104;-56
2022/04/05 07:27:01;;;;;;;11.40;6.17;;;;;;;3.36;90.08;96755.63;1761653;80;21698;-56
2022/04/05 07:29:28;;;;;;;5.47;3.30;;;;;;;3.39;90.14;96758.31;1756934;80;21044;-56
2022/04/05 07:31:54;;;;;;;12.68;6.37;;;;;;;3.44;89.83;96762.35;1766301;80;21045;-56
2022/04/05 07:34:21;;;;;;;9.65;6.53;;;;;;;3.44;90.14;96762.35;1760106;80;20973;-56
2022/04/05 07:36:48;;;;;;;11.85;7.65;;;;;;;3.48;90.03;96758.59;1761654;80;21479;-56
2022/04/05 07:39:15;;;;;;;5.78;3.17;;;;;;;3.52;89.83;96767.73;1747274;80;21033;-56
2022/04/05 07:41:42;;;;;;;18.65;9.10;;;;;;;3.54;89.95;96766.92;1716208;82;21033;-57
2022/04/05 07:44:09;;;;;;;5.15;3.40;;;;;;;3.54;90.01;96770.41;1756520;80;21004;-55
2022/04/05 07:46:36;;;;;;;6.78;3.72;;;;;;;3.62;89.91;96775.78;1745927;80;20970;-56
2022/04/05 07:49:03;;;;;;;8.90;4.20;;;;;;;3.73;89.79;96767.22;1747926;80;21104;-57
2022/04/05 07:51:30;;;;;;;4.20;3.08;;;;;;;3.81;89.53;96767.49;1756216;80;20985;-57
2022/04/05 07:53:57;;;;;;;5.08;2.95;;;;;;;3.87;89.39;96769.66;1760311;79;21392;-55
2022/04/05 07:56:23;;;;;;;3.30;2.58;;;;;;;3.99;89.36;96764.82;1761246;80;21122;-57
2022/04/05 07:58:51;;;;;;;6.45;4.05;;;;;;;4.03;89.14;96766.45;1757953;80;21013;-57
2022/04/05 08:01:18;;;;;;;4.92;2.87;;;;;;;4.13;89.07;96771.27;1751293;80;21104;-56
2022/04/05 08:03:45;;;;;;;7.20;4.30;;;;;;;4.18;89.09;96772.59;1760026;80;21052;-55
2022/04/05 08:06:12;;;;;;;3.42;1.77;;;;;;;4.27;88.89;96768.83;1747303;80;20993;-57
2022/04/05 08:08:39;;;;;;;6.20;2.62;;;;;;;4.33;88.71;96773.66;1758620;80;21037;-56
2022/04/05 08:11:06;;;;;;;4.72;2.33;;;;;;;4.35;88.18;96772.85;1754827;80;38044;-56
2022/04/05 08:13:33;;;;;;;4.65;2.40;;;;;;;4.35;88.31;96783.58;1748726;80;21481;-56
2022/04/05 08:16:00;;;;;;;4.53;2.67;;;;;;;4.31;88.07;96783.86;1750239;80;21021;-56
2022/04/05 08:18:27;;;;;;;10.08;6.92;;;;;;;4.35;87.99;96779.56;1750940;80;20978;-55
2022/04/05 08:20:54;;;;;;;5.58;2.75;;;;;;;4.43;88.20;96787.06;1744290;80;21477;-56
2022/04/05 08:23:21;;;;;;;4.10;2.67;;;;;;;4.48;87.95;96789.75;1749685;80;21415;-57
2022/04/05 08:25:48;;;;;;;4.50;2.75;;;;;;;4.51;88.09;96794.02;1749696;80;21059;-56
2022/04/05 08:28:15;;;;;;;35.92;17.00;;;;;;;4.55;87.45;96790.28;1708839;82;21001;-56
2022/04/05 08:30:42;;;;;;;4.87;3.65;;;;;;;4.70;87.67;96789.43;1746492;80;21049;-56
2022/04/05 08:33:09;;;;;;;13.58;6.90;;;;;;;4.92;87.24;96793.95;1753111;80;20989;-57
2022/04/05 08:35:37;;;;;;;24.18;10.98;;;;;;;4.98;86.67;96792.87;1761083;80;21038;-56
2022/04/05 08:38:04;;;;;;;12.85;6.15;;;;;;;5.01;86.60;96794.19;1761120;79;21478;-57
2022/04/05 08:40:31;;;;;;;12.50;6.33;;;;;;;5.05;86.38;96793.39;1761104;80;21045;-57
2022/04/05 08:42:58;;;;;;;19.30;10.15;;;;;;;5.06;86.24;96789.63;1759768;80;21480;-56
2022/04/05 08:45:26;;;;;;;28.85;12.63;;;;;;;4.99;86.35;96799.84;1756680;80;21005;-56
2022/04/05 08:47:56;;;;;;;18.12;8.58;;;;;;;5.05;86.07;96796.07;1760902;80;20985;-56
2022/04/05 08:50:26;;;;;;;12.80;6.72;;;;;;;5.14;86.06;96796.84;1758012;78;20990;-57
2022/04/05 08:52:54;;;;;;;8.33;4.03;;;;;;;5.24;86.12;96798.95;1753749;80;20997;-57
2022/04/05 08:55:21;;;;;;;4.85;2.60;;;;;;;5.34;85.40;96798.91;1752351;80;21061;-57
2022/04/05 08:57:48;;;;;;;20.75;9.78;;;;;;;5.50;84.68;96790.78;1728271;82;21065;-56
2022/04/05 09:00:19;;;;;;;17.92;7.95;;;;;;;5.56;85.12;96794.52;1746889;80;20982;-55
2022/04/05 09:03:05;;;;;;;8.08;4.83;;;;;;;5.63;84.79;96800.36;1743747;80;21092;-56
2022/04/05 09:05:46;;;;;;;18.20;8.80;;;;;;;5.79;84.88;96809.14;1754714;80;20962;-57
2022/04/05 09:08:28;;;;;;;9.65;4.58;;;;;;;5.94;84.82;96807.74;1745860;80;21103;-56
2022/04/05 09:11:06;;;;;;;10.18;6.28;;;;;;;6.06;83.61;96801.20;1743797;80;21477;-58
2022/04/05 09:13:33;;;;;;;12.82;7.70;;;;;;;5.88;83.88;96803.98;1760116;79;21028;-55
2022/04/05 09:16:04;;;;;;;7.35;4.20;;;;;;;5.97;83.90;96806.38;1750292;80;21527;-56
2022/04/05 09:18:41;;;;;;;23.12;7.65;;;;;;;6.02;83.70;96814.96;1742244;80;21116;-56
2022/04/05 09:21:09;;;;;;;3.35;3.00;;;;;;;6.13;83.31;96813.80;1755067;80;21021;-56
2022/04/05 09:23:43;;;;;;;7.70;5.35;;;;;;;6.02;82.84;96819.80;1761458;80;21575;-57
2022/04/05 09:26:12;;;;;;;6.58;3.70;;;;;;;5.97;82.78;96825.20;1745834;80;21012;-55
2022/04/05 09:28:42;;;;;;;6.35;3.90;;;;;;;5.97;82.78;96825.73;1747440;80;21321;-57
2022/04/05 09:31:12;;;;;;;4.50;3.12;;;;;;;5.98;83.30;96823.31;1745965;80;21025;-57
2022/04/05 09:34:02;;;;;;;5.17;3.05;;;;;;;5.98;82.84;96824.11;1762474;80;20965;-57
2022/04/05 09:36:38;;;;;;;3.70;1.80;;;;;;;5.90;82.71;96834.11;1747640;80;21111;-56
2022/04/05 09:39:22;;;;;;;3.12;1.72;;;;;;;5.78;82.43;96829.59;1762585;80;21088;-56
2022/04/05 09:42:07;;;;;;;4.62;2.70;;;;;;;5.72;82.65;96831.49;1762860;80;21601;-57
2022/04/05 09:44:43;;;;;;;4.37;2.98;;;;;;;5.82;82.60;96826.62;1742431;80;21210;-56
2022/04/05 09:47:18;;;;;;;11.73;5.15;;;;;;;5.92;82.61;96833.31;1753738;80;21751;-56
2022/04/05 09:49:48;;;;;;;2.22;1.42;;;;;;;5.97;82.35;96840.53;1754734;80;21060;-56
2022/04/05 09:52:33;;;;;;;5.33;2.60;;;;;;;5.91;81.50;96833.05;1725310;82;21046;-56
2022/04/05 09:55:15;;;;;;;3.70;2.30;;;;;;;5.81;82.38;96843.81;1748108;80;20974;-57
2022/04/05 09:57:42;;;;;;;2.92;2.35;;;;;;;5.80;82.53;96841.66;1759730;80;21100;-57
2022/04/05 10:00:17;;;;;;;5.78;4.25;;;;;;;5.65;82.63;96836.39;1752814;80;21033;-56
2022/04/05 10:03:11;;;;;;;4.22;1.65;;;;;;;5.60;82.97;96840.44;1749520;80;21561;-56
2022/04/05 10:05:39;;;;;;;5.30;3.00;;;;;;;5.56;82.52;96834.82;1747464;80;21045;-56
2022/04/05 10:08:06;;;;;;;8.03;4.75;;;;;;;5.49;82.73;96837.00;1747003;80;21101;-57
2022/04/05 10:10:33;;;;;;;5.90;3.00;;;;;;;5.42;83.33;96847.23;1745039;80;21064;-56
2022/04/05 10:13:00;;;;;;;7.25;2.98;;;;;;;5.38;83.43;96842.96;1742795;80;21077;-57
2022/04/05 10:15:28;;;;;;;5.17;3.05;;;;;;;5.36;83.40;96854.49;1751404;80;21417;-56
2022/04/05 10:17:56;;;;;;;8.98;3.72;;;;;;;5.25;83.46;96835.47;1741478;80;21498;-57
2022/04/05 10:20:23;;;;;;;3.72;2.65;;;;;;;5.23;83.37;96862.34;1751074;80;21564;-56
2022/04/05 10:22:53;;;;;;;10.68;5.30;;;;;;;5.19;83.37;96851.88;1748281;80;22407;-57
2022/04/05 10:25:21;;;;;;;7.83;4.28;;;;;;;5.14;83.87;96867.47;1746300;80;21056;-57
2022/04/05 10:27:49;;;;;;;6.65;4.15;;;;;;;5.18;83.90;96859.66;1741009;82;21590;-57
2022/04/05 10:30:25;;;;;;;5.22;2.77;;;;;;;5.20;83.96;96860.98;1742077;80;21037;-57
2022/04/05 10:33:21;;;;;;;3.55;2.05;;;;;;;5.26;83.89;96856.42;1740693;82;20986;-56
2022/04/05 10:35:53;;;;;;;5.47;3.52;;;;;;;5.28;83.34;96851.03;1748010;80;21068;-56
2022/04/05 10:38:20;;;;;;;6.75;3.42;;;;;;;5.42;83.95;96855.30;1742889;80;21017;-56
2022/04/05 10:41:17;;;;;;;4.12;2.50;;;;;;;5.51;83.72;96856.33;1748562;80;21088;-57
2022/04/05 10:43:47;;;;;;;6.17;3.58;;;;;;;5.64;83.72;96856.29;1757144;80;21033;-57
2022/04/05 10:46:15;;;;;;;6.72;3.45;;;;;;;5.74;83.97;96861.61;1748760;80;20998;-56
2022/04/05 10:48:54;;;;;;;6.73;4.80;;;;;;;5.67;83.84;96855.72;1744279;80;21952;-57
2022/04/05 10:51:35;;;;;;;3.92;3.00;;;;;;;5.60;83.39;96851.98;1754280;80;21468;-57
2022/04/05 10:54:18;;;;;;;7.67;4.17;;;;;;;5.42;83.42;96851.27;1748167;80;21036;-56
2022/04/05 10:57:18;;;;;;;10.93;5.17;;;;;;;5.48;83.65;96862.27;1748895;80;20993;-57
2022/04/05 10:59:50;;;;;;;14.70;7.62;;;;;;;5.38;84.19;96871.17;1758273;80;21072;-58
2022/04/05 11:02:33;;;;;;;12.00;5.65;;;;;;;5.34;84.29;96862.58;1699707;83;21203;-57
2022/04/05 11:05:14;;;;;;;12.07;7.53;;;;;;;5.40;84.19;96864.72;1747046;80;21024;-57
2022/04/05 11:07:55;;;;;;;20.72;9.60;;;;;;;5.42;84.49;96878.13;1749159;80;21856;-57
2022/04/05 11:10:31;;;;;;;7.90;4.58;;;;;;;5.46;84.14;96879.17;1753986;80;22830;-57
2022/04/05 11:13:21;;;;;;;17.95;9.03;;;;;;;5.49;84.04;96876.50;1747455;80;21087;-57
2022/04/05 11:15:51;;;;;;;15.10;8.68;;;;;;;5.49;84.03;96880.53;1736318;80;21016;-57
2022/04/05 11:18:23;;;;;;;7.85;5.37;;;;;;;5.58;84.14;96877.53;1740881;80;20977;-56
2022/04/05 11:20:52;;;;;;;22.67;11.45;;;;;;;5.65;84.14;96876.16;1741047;80;21597;-56
2022/04/05 11:23:19;;;;;;;;;;;;;;;5.66;83.75;96875.63;1760362;80;21532;-56
2022/04/05 11:25:47;;;;;;;111.42;48.48;;;;;;;5.72;83.56;96885.80;1751159;80;20155;-57
2022/04/05 11:28:21;;;;;;;15.80;8.80;;;;;;;5.69;83.70;96887.70;1745012;80;21084;-57
2022/04/05 11:31:08;;;;;;;541.92;257.27;;;;;;;5.71;83.41;96886.33;1768568;80;21014;-57
2022/04/05 11:33:34;;;;;;;306.70;119.55;;;;;;;5.77;83.68;96893.30;1761107;80;21044;-57
2022/04/05 11:36:13;;;;;;;474.92;186.97;;;;;;;5.84;83.65;96897.84;1743076;80;21028;-57
2022/04/05 11:38:45;;;;;;;127.90;43.28;;;;;;;5.85;83.19;96907.52;1749895;80;20979;-57
2022/04/05 11:41:28;;;;;;;149.93;54.75;;;;;;;5.88;83.03;96896.74;1729006;82;21018;-56
2022/04/05 11:43:58;;;;;;;78.60;35.08;;;;;;;5.88;82.84;96912.88;1742686;82;21018;-57
2022/04/05 11:46:32;;;;;;;139.52;68.55;;;;;;;5.81;82.73;96913.70;1740320;82;21470;-56
2022/04/05 11:49:02;;;;;;;27.20;15.58;;;;;;;5.83;82.72;96906.99;1703602;82;21343;-56